Time;durP1;ratioP1;P1;durP2;ratioP2;P2;SDS_P1;SDS_P2;PMS_P1;PMS_P2;Temp;Humidity;BMP_temperature;BMP_pressure;BME280_temperature;BME280_humidity;BME280_pressure;Samples;Min_cycle;Max_cycle;Signal;HPM_P1;HPM_P2
2024/04/09 00:00:09;;;;;;;;;;;15.00;99.90;;;;;;5532224;25;19933;-63
2024/04/09 00:02:36;;;;;;;;;;;15.10;99.90;;;;;;5526419;25;20282;-62
2024/04/09 00:05:08;;;;;;;;;;;15.00;99.90;;;;;;5525277;25;20213;-63
2024/04/09 00:07:36;;;;;;;;;;;15.10;99.90;;;;;;5524252;25;19934;-62
2024/04/09 00:10:06;;;;;;;;;;;15.10;99.90;;;;;;5496078;25;20294;-62
2024/04/09 00:12:33;;;;;;;;;;;15.00;99.90;;;;;;5491632;25;19928;-64
2024/04/09 00:15:00;;;;;;;;;;;15.00;99.90;;;;;;5525438;25;20254;-62
2024/04/09 00:17:34;;;;;;;;;;;15.00;99.90;;;;;;5500266;25;20398;-62
2024/04/09 00:20:09;;;;;;;;;;;14.90;99.90;;;;;;5490696;25;19943;-62
2024/04/09 00:22:36;;;;;;;;;;;15.00;99.90;;;;;;5499967;26;19934;-62
2024/04/09 00:25:03;;;;;;;;;;;15.00;99.90;;;;;;5493643;25;19928;-64
2024/04/09 00:27:30;;;;;;;;;;;15.00;99.90;;;;;;5511628;25;19942;-63
2024/04/09 00:29:56;;;;;;;;;;;15.00;99.90;;;;;;5531173;25;19927;-63
2024/04/09 00:32:23;;;;;;;;;;;15.00;99.90;;;;;;5511350;26;19934;-63
2024/04/09 00:34:50;;;;;;;;;;;15.00;99.90;;;;;;5511451;25;20519;-63
2024/04/09 00:37:17;;;;;;;;;;;15.00;99.90;;;;;;5531767;25;20359;-62
2024/04/09 00:39:44;;;;;;;;;;;15.00;99.90;;;;;;5523014;25;19935;-63
2024/04/09 00:42:11;;;;;;;;;;;15.00;99.90;;;;;;5513163;25;20392;-62
2024/04/09 00:44:38;;;;;;;;;;;15.00;99.90;;;;;;5505797;26;20783;-62
2024/04/09 00:47:06;;;;;;;;;;;15.10;99.90;;;;;;5511327;25;19934;-62
2024/04/09 00:49:33;;;;;;;;;;;15.00;99.90;;;;;;5501053;25;20304;-63
2024/04/09 00:52:00;;;;;;;;;;;15.10;99.90;;;;;;5509638;26;19927;-63
2024/04/09 00:54:27;;;;;;;;;;;15.20;99.90;;;;;;5503915;26;20301;-62
2024/04/09 00:56:55;;;;;;;;;;;15.10;99.90;;;;;;5513057;25;20695;-63
2024/04/09 00:59:22;;;;;;;;;;;15.10;99.90;;;;;;5514372;25;19928;-63
2024/04/09 01:01:49;;;;;;;;;;;15.10;99.90;;;;;;5505212;25;19927;-63
2024/04/09 01:04:16;;;;;;;;;;;15.20;99.90;;;;;;5494364;26;19934;-62
2024/04/09 01:06:43;;;;;;;;;;;15.30;99.90;;;;;;5513976;25;20281;-62
2024/04/09 01:09:10;;;;;;;;;;;15.30;99.90;;;;;;5512637;25;20376;-63
2024/04/09 01:11:37;;;;;;;;;;;15.30;99.90;;;;;;5506356;25;19935;-63
2024/04/09 01:14:03;;;;;;;;;;;15.30;99.90;;;;;;5514371;26;19927;-63
2024/04/09 01:16:30;;;;;;;;;;;15.20;99.90;;;;;;5519552;25;20352;-63
2024/04/09 01:18:58;;;;;;;;;;;15.20;99.90;;;;;;5505774;25;20369;-63
2024/04/09 01:21:25;;;;;;;;;;;15.20;99.90;;;;;;5489758;26;19947;-63
2024/04/09 01:23:53;;;;;;;;;;;15.30;99.90;;;;;;5491817;25;20385;-63
2024/04/09 01:26:19;;;;;;;;;;;15.30;99.90;;;;;;5479477;25;19928;-63
2024/04/09 01:28:46;;;;;;;;;;;15.30;99.90;;;;;;5492553;25;21262;-63
2024/04/09 01:31:15;;;;;;;;;;;15.30;99.90;;;;;;5518751;25;19927;-63
2024/04/09 01:33:43;;;;;;;;;;;15.20;99.90;;;;;;5510448;25;20278;-63
2024/04/09 01:36:12;;;;;;;;;;;15.20;99.90;;;;;;5530295;25;19938;-63
2024/04/09 01:38:39;;;;;;;;;;;15.10;99.90;;;;;;5525656;25;20367;-63
2024/04/09 01:41:06;;;;;;;;;;;15.00;99.90;;;;;;5509602;25;20369;-63
2024/04/09 01:43:33;;;;;;;;;;;15.20;99.90;;;;;;5514413;25;20376;-63
2024/04/09 01:46:01;;;;;;;;;;;15.00;99.90;;;;;;5514801;25;20408;-63
2024/04/09 01:48:28;;;;;;;;;;;15.10;99.90;;;;;;5540018;25;19927;-63
2024/04/09 01:50:57;;;;;;;;;;;15.00;99.90;;;;;;5486536;25;19927;-63
2024/04/09 01:53:23;;;;;;;;;;;15.10;99.90;;;;;;5512707;25;19934;-63
2024/04/09 01:56:01;;;;;;;;;;;15.10;99.90;;;;;;5498549;25;20258;-63
2024/04/09 01:58:28;;;;;;;;;;;15.10;99.90;;;;;;5482392;25;20368;-63
2024/04/09 02:00:55;;;;;;;;;;;15.00;99.90;;;;;;5524161;25;19933;-63
2024/04/09 02:03:24;;;;;;;;;;;14.90;99.90;;;;;;5503863;25;20278;-63
2024/04/09 02:05:51;;;;;;;;;;;15.00;99.90;;;;;;5489381;26;19934;-64
2024/04/09 02:08:18;;;;;;;;;;;15.00;99.90;;;;;;5499749;25;19928;-63
2024/04/09 02:10:46;;;;;;;;;;;15.00;99.90;;;;;;5524375;25;20374;-63
2024/04/09 02:13:15;;;;;;;;;;;15.10;99.90;;;;;;5495141;25;20269;-63
2024/04/09 02:15:42;;;;;;;;;;;15.00;99.90;;;;;;5460670;26;19927;-64
2024/04/09 02:18:10;;;;;;;;;;;15.00;99.90;;;;;;5496844;26;19927;-63
2024/04/09 02:20:38;;;;;;;;;;;14.90;99.90;;;;;;5494952;25;19928;-63
2024/04/09 02:23:05;;;;;;;;;;;14.80;99.90;;;;;;5492218;26;19927;-63
2024/04/09 02:25:32;;;;;;;;;;;15.10;99.90;;;;;;5498820;26;19928;-63
2024/04/09 02:27:58;;;;;;;;;;;15.00;99.90;;;;;;5492377;26;19928;-62
2024/04/09 02:30:25;;;;;;;;;;;14.90;99.90;;;;;;5496178;25;20238;-62
2024/04/09 02:32:52;;;;;;;;;;;15.30;99.90;;;;;;5495230;25;20238;-63
2024/04/09 02:35:19;;;;;;;;;;;15.00;99.90;;;;;;5509065;25;19927;-63
2024/04/09 02:37:47;;;;;;;;;;;15.00;99.90;;;;;;5511888;25;19939;-63
2024/04/09 02:40:16;;;;;;;;;;;15.00;99.90;;;;;;5520630;25;20263;-63
2024/04/09 02:42:43;;;;;;;;;;;14.90;99.90;;;;;;5513775;25;20388;-64
2024/04/09 02:45:10;;;;;;;;;;;15.00;99.90;;;;;;5517797;25;19926;-63
2024/04/09 02:47:39;;;;;;;;;;;14.80;99.90;;;;;;5504520;25;19942;-63
2024/04/09 02:50:06;;;;;;;;;;;15.00;99.90;;;;;;5514126;25;20489;-64
2024/04/09 02:52:33;;;;;;;;;;;15.00;99.90;;;;;;5507066;25;20613;-63
2024/04/09 02:55:00;;;;;;;;;;;14.90;99.90;;;;;;5511834;26;19976;-63
2024/04/09 02:57:28;;;;;;;;;;;14.90;99.90;;;;;;5495051;25;19934;-63
2024/04/09 02:59:54;;;;;;;;;;;15.00;99.90;;;;;;5497718;26;20496;-63
2024/04/09 03:02:21;;;;;;;;;;;14.80;99.90;;;;;;5483539;25;19928;-62
2024/04/09 03:04:50;;;;;;;;;;;15.00;99.90;;;;;;5483178;26;19934;-63
2024/04/09 03:07:17;;;;;;;;;;;14.80;99.90;;;;;;5483447;25;19927;-63
2024/04/09 03:09:44;;;;;;;;;;;14.90;99.90;;;;;;5500993;25;20370;-63
2024/04/09 03:12:11;;;;;;;;;;;14.80;99.90;;;;;;5493005;25;19927;-63
2024/04/09 03:14:38;;;;;;;;;;;14.90;99.90;;;;;;5526864;25;20378;-63
2024/04/09 03:17:05;;;;;;;;;;;14.80;99.90;;;;;;5532450;25;20301;-64
2024/04/09 03:19:32;;;;;;;;;;;14.90;99.90;;;;;;5499570;25;19927;-63
2024/04/09 03:21:59;;;;;;;;;;;14.70;99.90;;;;;;5521114;25;20310;-63
2024/04/09 03:24:26;;;;;;;;;;;14.90;99.90;;;;;;5498039;25;19927;-63
2024/04/09 03:26:53;;;;;;;;;;;14.90;99.90;;;;;;5509755;25;19928;-64
2024/04/09 03:29:20;;;;;;;;;;;14.70;99.90;;;;;;5510021;26;19933;-63
2024/04/09 03:31:47;;;;;;;;;;;14.70;99.90;;;;;;5509604;26;19996;-63
2024/04/09 03:34:14;;;;;;;;;;;14.70;99.90;;;;;;5528878;25;19934;-63
2024/04/09 03:36:41;;;;;;;;;;;14.70;99.90;;;;;;5510452;26;19934;-64
2024/04/09 03:39:08;;;;;;;;;;;14.70;99.90;;;;;;5532596;25;20437;-64
2024/04/09 03:41:35;;;;;;;;;;;14.70;99.90;;;;;;5545696;25;20362;-63
2024/04/09 03:44:02;;;;;;;;;;;14.80;99.90;;;;;;5508895;25;20336;-64
2024/04/09 03:46:29;;;;;;;;;;;14.80;99.90;;;;;;5520786;25;19927;-63
2024/04/09 03:48:56;;;;;;;;;;;14.70;99.90;;;;;;5525114;25;19928;-63
2024/04/09 03:51:24;;;;;;;;;;;14.80;99.90;;;;;;5502977;25;19938;-64
2024/04/09 03:53:51;;;;;;;;;;;14.70;99.90;;;;;;5509409;26;19927;-63
2024/04/09 03:56:18;;;;;;;;;;;14.80;99.90;;;;;;5491692;25;19932;-64
2024/04/09 03:58:46;;;;;;;;;;;14.70;99.90;;;;;;5499761;25;19935;-64
2024/04/09 04:01:13;;;;;;;;;;;14.90;99.90;;;;;;5482240;26;19939;-63
2024/04/09 04:03:41;;;;;;;;;;;14.80;99.90;;;;;;5528409;25;19926;-64
2024/04/09 04:06:07;;;;;;;;;;;14.90;99.90;;;;;;5513281;25;20301;-64
2024/04/09 04:08:36;;;;;;;;;;;14.70;99.90;;;;;;5509060;25;20330;-63
2024/04/09 04:11:04;;;;;;;;;;;14.70;99.90;;;;;;5502200;25;19927;-65
2024/04/09 04:13:32;;;;;;;;;;;14.70;99.90;;;;;;5510496;25;20128;-64
2024/04/09 04:16:06;;;;;;;;;;;14.70;99.90;;;;;;5516161;25;19927;-64
2024/04/09 04:18:42;;;;;;;;;;;14.80;99.90;;;;;;5520850;25;19928;-65
2024/04/09 04:21:12;;;;;;;;;;;14.80;99.90;;;;;;5500333;25;19928;-65
2024/04/09 04:23:41;;;;;;;;;;;14.80;99.90;;;;;;5528249;25;19927;-64
2024/04/09 04:26:10;;;;;;;;;;;14.70;99.90;;;;;;5529835;25;20301;-64
2024/04/09 04:28:40;;;;;;;;;;;14.70;99.90;;;;;;5501767;26;20449;-63
2024/04/09 04:31:07;;;;;;;;;;;14.50;99.90;;;;;;5487471;26;19927;-63
2024/04/09 04:33:35;;;;;;;;;;;14.50;99.90;;;;;;5534616;25;19927;-63
2024/04/09 04:36:02;;;;;;;;;;;14.60;99.90;;;;;;5515624;25;19928;-63
2024/04/09 04:38:29;;;;;;;;;;;14.60;99.90;;;;;;5453909;25;20367;-63
2024/04/09 04:40:56;;;;;;;;;;;14.70;99.90;;;;;;5523323;25;19934;-63
2024/04/09 04:43:23;;;;;;;;;;;14.50;99.90;;;;;;5517260;25;19927;-63
2024/04/09 04:45:56;;;;;;;;;;;14.70;99.90;;;;;;5486648;26;19934;-63
2024/04/09 04:48:23;;;;;;;;;;;14.60;99.90;;;;;;5489926;25;19927;-63
2024/04/09 04:50:52;;;;;;;;;;;14.60;99.90;;;;;;5485075;25;19928;-62
2024/04/09 04:53:19;;;;;;;;;;;14.50;99.90;;;;;;5506456;26;20406;-62
2024/04/09 04:55:46;;;;;;;;;;;14.50;99.90;;;;;;5521496;25;19927;-63
2024/04/09 04:58:13;;;;;;;;;;;14.60;99.90;;;;;;5529923;25;19931;-63
2024/04/09 05:00:40;;;;;;;;;;;14.60;99.90;;;;;;5541584;25;19926;-63
2024/04/09 05:03:07;;;;;;;;;;;14.60;99.90;;;;;;5538122;25;19927;-63
2024/04/09 05:05:34;;;;;;;;;;;14.50;99.90;;;;;;5542239;25;19927;-63
2024/04/09 05:08:01;;;;;;;;;;;14.40;99.90;;;;;;5533334;25;19928;-63
2024/04/09 05:10:28;;;;;;;;;;;14.40;99.90;;;;;;5537767;25;20365;-63
2024/04/09 05:12:55;;;;;;;;;;;14.50;99.90;;;;;;5531129;25;19935;-63
2024/04/09 05:15:22;;;;;;;;;;;14.40;99.90;;;;;;5510391;25;20372;-63
2024/04/09 05:17:49;;;;;;;;;;;14.40;99.90;;;;;;5534161;25;19934;-63
2024/04/09 05:20:17;;;;;;;;;;;14.40;99.90;;;;;;5542127;25;19927;-63
2024/04/09 05:22:47;;;;;;;;;;;14.30;99.90;;;;;;5533314;25;19928;-63
2024/04/09 05:25:15;;;;;;;;;;;14.40;99.90;;;;;;5539778;25;19927;-63
2024/04/09 05:27:42;;;;;;;;;;;14.30;99.90;;;;;;5540327;25;19926;-63
2024/04/09 05:30:12;;;;;;;;;;;14.40;99.90;;;;;;5541497;25;20004;-63
2024/04/09 05:32:41;;;;;;;;;;;14.40;99.90;;;;;;5537141;25;19927;-63
2024/04/09 05:35:09;;;;;;;;;;;14.20;99.90;;;;;;5539659;25;20351;-63
2024/04/09 05:37:36;;;;;;;;;;;14.40;99.90;;;;;;5533119;25;19926;-62
2024/04/09 05:40:08;;;;;;;;;;;14.30;99.90;;;;;;5539730;25;19927;-63
2024/04/09 05:42:39;;;;;;;;;;;14.30;99.90;;;;;;5539891;25;20364;-62
2024/04/09 05:45:08;;;;;;;;;;;14.10;99.90;;;;;;5532847;25;19927;-62
2024/04/09 05:47:35;;;;;;;;;;;14.00;99.90;;;;;;5540075;25;20253;-62
2024/04/09 05:50:05;;;;;;;;;;;13.90;99.90;;;;;;5539555;25;20269;-62
2024/04/09 05:52:35;;;;;;;;;;;14.00;99.90;;;;;;5536525;25;20269;-63
2024/04/09 05:55:02;;;;;;;;;;;13.90;99.90;;;;;;5536058;25;20269;-66
2024/04/09 05:57:36;;;;;;;;;;;13.90;99.90;;;;;;5541984;25;19927;-63
2024/04/09 06:00:05;;;;;;;;;;;13.90;99.90;;;;;;5531147;25;19943;-62
2024/04/09 06:02:32;;;;;;;;;;;13.80;99.90;;;;;;5535954;25;19933;-63
2024/04/09 06:05:00;;;;;;;;;;;13.80;99.90;;;;;;5537365;25;19963;-63
2024/04/09 06:07:30;;;;;;;;;;;13.80;99.90;;;;;;5540727;25;20278;-63
2024/04/09 06:09:57;;;;;;;;;;;13.70;99.90;;;;;;5539609;25;19927;-62
2024/04/09 06:12:24;;;;;;;;;;;13.60;99.90;;;;;;5533841;25;20261;-63
2024/04/09 06:14:53;;;;;;;;;;;13.70;99.90;;;;;;5538106;25;20336;-62
2024/04/09 06:17:21;;;;;;;;;;;13.60;99.90;;;;;;5539428;25;19933;-63
2024/04/09 06:19:47;;;;;;;;;;;13.60;99.90;;;;;;5539257;25;19927;-63
2024/04/09 06:22:14;;;;;;;;;;;13.60;99.90;;;;;;5532427;25;20207;-62
2024/04/09 06:24:41;;;;;;;;;;;13.60;99.90;;;;;;5501752;25;20269;-63
2024/04/09 06:27:08;;;;;;;;;;;13.60;99.90;;;;;;5537491;25;20337;-63
2024/04/09 06:29:35;;;;;;;;;;;13.60;99.90;;;;;;5537754;25;20271;-62
2024/04/09 06:32:04;;;;;;;;;;;13.60;99.90;;;;;;5530166;25;19939;-63
2024/04/09 06:34:31;;;;;;;;;;;13.60;99.90;;;;;;5534120;25;20328;-62
2024/04/09 06:37:00;;;;;;;;;;;13.50;99.90;;;;;;5535235;25;19927;-62
2024/04/09 06:39:27;;;;;;;;;;;13.50;99.90;;;;;;5531573;25;19927;-63
2024/04/09 06:41:55;;;;;;;;;;;13.50;99.90;;;;;;5533804;25;20483;-62
2024/04/09 06:44:23;;;;;;;;;;;13.50;99.90;;;;;;5533645;25;19927;-62
2024/04/09 06:46:50;;;;;;;;;;;13.50;99.90;;;;;;5533583;25;21594;-63
2024/04/09 06:49:17;;;;;;;;;;;13.50;99.90;;;;;;5535838;25;20428;-64
2024/04/09 06:51:44;;;;;;;;;;;13.50;99.90;;;;;;5515590;25;19927;-63
2024/04/09 06:54:11;;;;;;;;;;;13.50;99.90;;;;;;5483973;25;19941;-63
2024/04/09 06:56:38;;;;;;;;;;;13.50;99.90;;;;;;5531836;25;19936;-63
2024/04/09 06:59:05;;;;;;;;;;;13.60;99.90;;;;;;5534267;25;20297;-62
2024/04/09 07:01:32;;;;;;;;;;;13.50;99.90;;;;;;5536078;25;20019;-63
2024/04/09 07:03:59;;;;;;;;;;;13.60;99.90;;;;;;5539417;25;20265;-62
2024/04/09 07:06:26;;;;;;;;;;;13.60;99.90;;;;;;5533126;25;19926;-62
2024/04/09 07:08:52;;;;;;;;;;;13.60;99.90;;;;;;5529387;25;20365;-63
2024/04/09 07:11:21;;;;;;;;;;;13.60;99.90;;;;;;5530045;25;19942;-63
2024/04/09 07:13:48;;;;;;;;;;;13.70;99.90;;;;;;5532579;25;20348;-62
2024/04/09 07:16:16;;;;;;;;;;;13.50;99.90;;;;;;5518993;25;19942;-63
2024/04/09 07:18:43;;;;;;;;;;;13.70;99.90;;;;;;5511447;25;20802;-63
2024/04/09 07:21:10;;;;;;;;;;;13.80;99.90;;;;;;5532966;25;19940;-62
2024/04/09 07:23:37;;;;;;;;;;;13.70;99.90;;;;;;5532755;25;20265;-63
2024/04/09 07:26:04;;;;;;;;;;;13.70;99.90;;;;;;5529220;25;19960;-63
2024/04/09 07:28:31;;;;;;;;;;;13.70;99.90;;;;;;5536701;25;19941;-62
2024/04/09 07:31:02;;;;;;;;;;;13.70;99.90;;;;;;5527229;25;19927;-63
2024/04/09 07:33:29;;;;;;;;;;;13.70;99.90;;;;;;5522492;25;20289;-63
2024/04/09 07:35:58;;;;;;;;;;;13.70;99.90;;;;;;5514030;25;19927;-62
2024/04/09 07:38:25;;;;;;;;;;;13.60;99.90;;;;;;5535363;25;19926;-62
2024/04/09 07:40:52;;;;;;;;;;;13.60;99.90;;;;;;5533093;25;20358;-62
2024/04/09 07:43:19;;;;;;;;;;;13.60;99.90;;;;;;5533672;25;19927;-63
2024/04/09 07:45:51;;;;;;;;;;;13.50;99.90;;;;;;5532297;25;19926;-62
2024/04/09 07:48:18;;;;;;;;;;;13.50;99.90;;;;;;5533034;25;19927;-62
2024/04/09 07:50:45;;;;;;;;;;;13.50;99.90;;;;;;5526894;25;20271;-62
2024/04/09 07:53:12;;;;;;;;;;;13.50;99.90;;;;;;5532857;25;19934;-62
2024/04/09 07:55:40;;;;;;;;;;;13.60;99.90;;;;;;5535742;25;19933;-62
2024/04/09 07:58:07;;;;;;;;;;;13.60;99.90;;;;;;5501581;25;19933;-62
2024/04/09 08:00:34;;;;;;;;;;;13.70;99.90;;;;;;5543022;25;19933;-62
2024/04/09 08:03:01;;;;;;;;;;;13.70;99.90;;;;;;5541761;25;20273;-62
2024/04/09 08:05:28;;;;;;;;;;;13.80;99.90;;;;;;5538180;25;20274;-62
2024/04/09 08:07:55;;;;;;;;;;;13.90;99.90;;;;;;5538921;25;20478;-62
2024/04/09 08:10:22;;;;;;;;;;;13.90;99.90;;;;;;5543816;25;20371;-62
2024/04/09 08:12:57;;;;;;;;;;;13.90;99.90;;;;;;5541219;25;19927;-62
2024/04/09 08:15:24;;;;;;;;;;;13.90;99.90;;;;;;5535947;25;20278;-62
2024/04/09 08:17:51;;;;;;;;;;;13.80;99.90;;;;;;5540640;25;20361;-62
2024/04/09 08:20:18;;;;;;;;;;;13.80;99.90;;;;;;5538752;25;20358;-62
2024/04/09 08:22:47;;;;;;;;;;;13.80;99.90;;;;;;5533323;25;20375;-62
2024/04/09 08:25:15;;;;;;;;;;;13.80;99.90;;;;;;5539055;25;20273;-62
2024/04/09 08:27:42;;;;;;;;;;;13.80;99.90;;;;;;5539383;25;20428;-62
2024/04/09 08:30:12;;;;;;;;;;;13.70;99.90;;;;;;5544137;25;19927;-63
2024/04/09 08:32:39;;;;;;;;;;;13.70;99.90;;;;;;5534889;25;19927;-62
2024/04/09 08:35:06;;;;;;;;;;;13.70;99.90;;;;;;5535721;25;19927;-62
2024/04/09 08:37:34;;;;;;;;;;;13.60;99.90;;;;;;5538387;25;20274;-62
2024/04/09 08:40:01;;;;;;;;;;;13.60;99.90;;;;;;5538564;25;19931;-62
2024/04/09 08:42:28;;;;;;;;;;;13.60;99.90;;;;;;5543118;25;19927;-62
2024/04/09 08:44:55;;;;;;;;;;;13.60;99.90;;;;;;5536052;25;19933;-62
2024/04/09 08:47:25;;;;;;;;;;;13.60;99.90;;;;;;5535343;25;19927;-62
2024/04/09 08:49:55;;;;;;;;;;;13.60;99.90;;;;;;5540375;25;19933;-62
2024/04/09 08:52:22;;;;;;;;;;;13.70;99.90;;;;;;5538172;25;19937;-62
2024/04/09 08:54:50;;;;;;;;;;;13.50;99.90;;;;;;5505644;25;19927;-62
2024/04/09 08:57:19;;;;;;;;;;;13.60;99.90;;;;;;5538738;25;20273;-62
2024/04/09 08:59:45;;;;;;;;;;;13.60;99.90;;;;;;5539027;25;19927;-62
2024/04/09 09:02:15;;;;;;;;;;;13.60;99.90;;;;;;5538074;25;20757;-62
2024/04/09 09:04:43;;;;;;;;;;;13.60;99.90;;;;;;5537146;25;19927;-62
2024/04/09 09:07:16;;;;;;;;;;;13.60;99.90;;;;;;5539600;25;19936;-62
2024/04/09 09:09:44;;;;;;;;;;;13.60;99.90;;;;;;5538000;25;19933;-62
2024/04/09 09:12:10;;;;;;;;;;;13.60;99.90;;;;;;5538032;25;19941;-62
2024/04/09 09:14:37;;;;;;;;;;;13.70;99.90;;;;;;5540235;25;19927;-62
2024/04/09 09:17:05;;;;;;;;;;;13.80;99.90;;;;;;5537923;25;19931;-62
2024/04/09 09:19:34;;;;;;;;;;;14.10;99.90;;;;;;5542458;25;19927;-62
2024/04/09 09:22:04;;;;;;;;;;;14.70;99.90;;;;;;5538609;25;20390;-62
2024/04/09 09:24:31;;;;;;;;;;;15.10;99.90;;;;;;5539450;25;20293;-62
2024/04/09 09:27:01;;;;;;;;;;;15.40;99.90;;;;;;5542141;25;19927;-62
2024/04/09 09:29:29;;;;;;;;;;;15.60;99.90;;;;;;5541080;25;20373;-62
2024/04/09 09:31:55;;;;;;;;;;;15.50;99.90;;;;;;5538234;25;20022;-62
2024/04/09 09:34:41;;;;;;;;;;;15.30;99.90;;;;;;5539081;25;19927;-62
2024/04/09 09:37:08;;;;;;;;;;;15.20;99.90;;;;;;5539109;25;19926;-62
2024/04/09 09:39:35;;;;;;;;;;;15.20;99.90;;;;;;5542638;25;19927;-62
2024/04/09 09:42:04;;;;;;;;;;;15.20;99.90;;;;;;5539987;25;19935;-62
2024/04/09 09:44:34;;;;;;;;;;;15.30;99.90;;;;;;5506801;25;19935;-62
2024/04/09 09:47:01;;;;;;;;;;;15.30;99.90;;;;;;5539750;25;19927;-62
2024/04/09 09:49:28;;;;;;;;;;;15.40;99.90;;;;;;5541357;25;19926;-62
2024/04/09 09:51:55;;;;;;;;;;;15.40;99.90;;;;;;5534364;25;20448;-63
2024/04/09 09:54:27;;;;;;;;;;;15.60;99.90;;;;;;5542106;25;19927;-62
2024/04/09 09:57:14;;;;;;;;;;;15.70;99.90;;;;;;5537160;25;19934;-62
2024/04/09 09:59:47;;;;;;;;;;;15.60;99.90;;;;;;5533700;25;19938;-61
2024/04/09 10:02:15;;;;;;;;;;;15.90;99.90;;;;;;5537551;25;20366;-62
2024/04/09 10:04:43;;;;;;;;;;;16.00;99.90;;;;;;5541023;25;19927;-62
2024/04/09 10:07:11;;;;;;;;;;;16.10;99.90;;;;;;5540729;25;19935;-63
2024/04/09 10:09:41;;;;;;;;;;;16.10;99.90;;;;;;5537479;25;19927;-62
2024/04/09 10:12:28;;;;;;;;;;;16.10;99.90;;;;;;5537203;25;20022;-63
2024/04/09 10:15:04;;;;;;;;;;;16.00;99.90;;;;;;5538600;25;20443;-62
2024/04/09 10:17:48;;;;;;;;;;;16.20;99.90;;;;;;5519824;25;19941;-62
2024/04/09 10:20:19;;;;;;;;;;;16.30;99.90;;;;;;5542558;25;19927;-63
2024/04/09 10:22:49;;;;;;;;;;;16.40;99.90;;;;;;5534356;25;19927;-63
2024/04/09 10:25:17;;;;;;;;;;;16.50;99.90;;;;;;5538353;25;19927;-62
2024/04/09 10:27:44;;;;;;;;;;;16.60;99.90;;;;;;5535649;25;20381;-63
2024/04/09 10:30:14;;;;;;;;;;;16.80;99.90;;;;;;5534124;25;19950;-62
2024/04/09 10:32:41;;;;;;;;;;;16.80;99.90;;;;;;5539933;25;20259;-64
2024/04/09 10:35:09;;;;;;;;;;;16.60;99.90;;;;;;5535567;25;20265;-63
2024/04/09 10:37:37;;;;;;;;;;;16.60;99.90;;;;;;5538901;25;19927;-63
2024/04/09 10:40:04;;;;;;;;;;;16.60;99.90;;;;;;5534766;25;20239;-62
2024/04/09 10:42:31;;;;;;;;;;;16.50;99.90;;;;;;5521034;25;19935;-63
2024/04/09 10:44:58;;;;;;;;;;;16.40;99.90;;;;;;5503851;25;19934;-62
2024/04/09 10:47:26;;;;;;;;;;;16.20;99.90;;;;;;5541440;25;19926;-63
2024/04/09 10:49:53;;;;;;;;;;;16.20;99.90;;;;;;5537324;25;20362;-63
2024/04/09 10:52:20;;;;;;;;;;;16.20;99.90;;;;;;5535676;25;20384;-62
2024/04/09 10:54:47;;;;;;;;;;;16.30;99.90;;;;;;5516558;25;20369;-63
2024/04/09 10:57:14;;;;;;;;;;;16.20;99.90;;;;;;5509701;25;19933;-63
2024/04/09 10:59:41;;;;;;;;;;;16.20;99.90;;;;;;5516581;25;20272;-62
2024/04/09 11:02:10;;;;;;;;;;;16.50;99.90;;;;;;5531226;25;19927;-63
2024/04/09 11:04:37;;;;;;;;;;;16.50;99.90;;;;;;5536278;25;19933;-63
2024/04/09 11:07:05;;;;;;;;;;;16.50;99.90;;;;;;5533066;25;19927;-63
2024/04/09 11:09:34;;;;;;;;;;;16.60;99.90;;;;;;5534566;25;20354;-62
2024/04/09 11:12:01;;;;;;;;;;;16.50;98.40;;;;;;5533690;25;20341;-63
2024/04/09 11:14:28;;;;;;;;;;;16.40;99.90;;;;;;5521801;25;19927;-63
2024/04/09 11:16:57;;;;;;;;;;;16.30;99.40;;;;;;5535821;25;20278;-62
2024/04/09 11:19:27;;;;;;;;;;;16.00;99.30;;;;;;5540584;25;20062;-63
2024/04/09 11:21:54;;;;;;;;;;;15.80;99.90;;;;;;5526740;25;19949;-62
2024/04/09 11:24:22;;;;;;;;;;;15.50;99.90;;;;;;5527290;25;19928;-63
2024/04/09 11:26:48;;;;;;;;;;;15.50;99.90;;;;;;5508441;25;19934;-62
2024/04/09 11:29:19;;;;;;;;;;;15.40;99.90;;;;;;5495825;25;19934;-63
2024/04/09 11:31:46;;;;;;;;;;;15.60;99.90;;;;;;5495150;25;19928;-63
2024/04/09 11:34:22;;;;;;;;;;;15.50;99.90;;;;;;5527395;25;20372;-63
2024/04/09 11:36:49;;;;;;;;;;;15.40;99.90;;;;;;5539134;25;19933;-63
2024/04/09 11:39:18;;;;;;;;;;;15.50;99.90;;;;;;5537733;25;19927;-63
2024/04/09 11:41:46;;;;;;;;;;;15.30;99.90;;;;;;5536861;25;20391;-63
2024/04/09 11:44:18;;;;;;;;;;;15.20;99.90;;;;;;5528970;25;19927;-62
2024/04/09 11:46:45;;;;;;;;;;;15.20;99.90;;;;;;5523066;25;19933;-63
2024/04/09 11:49:12;;;;;;;;;;;15.20;99.90;;;;;;5533370;25;19941;-63
2024/04/09 11:51:41;;;;;;;;;;;15.30;99.90;;;;;;5537016;25;19987;-62
2024/04/09 11:54:09;;;;;;;;;;;15.20;99.90;;;;;;5504768;25;19938;-63
2024/04/09 11:56:38;;;;;;;;;;;15.30;99.90;;;;;;5539839;25;20273;-63
2024/04/09 11:59:06;;;;;;;;;;;15.30;99.90;;;;;;5517124;25;19927;-62
2024/04/09 12:01:34;;;;;;;;;;;15.20;99.90;;;;;;5542139;25;20243;-63
2024/04/09 12:04:01;;;;;;;;;;;15.20;99.90;;;;;;5534861;25;19939;-63
2024/04/09 12:06:28;;;;;;;;;;;15.20;99.70;;;;;;5466809;25;20387;-63
2024/04/09 12:08:55;;;;;;;;;;;15.20;99.90;;;;;;5520636;25;19927;-63
2024/04/09 12:11:22;;;;;;;;;;;15.20;99.90;;;;;;5507044;25;20259;-63
2024/04/09 12:13:49;;;;;;;;;;;15.20;99.90;;;;;;5535869;25;20267;-63
2024/04/09 12:16:16;;;;;;;;;;;15.20;99.90;;;;;;5536302;25;19934;-63
2024/04/09 12:18:43;;;;;;;;;;;15.20;99.90;;;;;;5526330;25;19927;-63
2024/04/09 12:21:10;;;;;;;;;;;15.20;99.90;;;;;;5538518;25;19927;-63
2024/04/09 12:23:37;;;;;;;;;;;15.20;99.90;;;;;;5529833;25;20437;-63
2024/04/09 12:26:04;;;;;;;;;;;15.30;99.90;;;;;;5526527;25;19951;-63
2024/04/09 12:28:31;;;;;;;;;;;15.20;99.90;;;;;;5537934;25;20293;-63
2024/04/09 12:30:58;;;;;;;;;;;15.20;99.90;;;;;;5536242;25;19934;-62
2024/04/09 12:33:24;;;;;;;;;;;15.10;99.40;;;;;;5539726;25;20465;-63
2024/04/09 12:35:51;;;;;;;;;;;15.00;99.60;;;;;;5535946;25;20322;-63
2024/04/09 12:38:18;;;;;;;;;;;14.90;99.60;;;;;;5539099;25;19933;-63
2024/04/09 12:40:45;;;;;;;;;;;14.80;99.90;;;;;;5539352;25;19934;-63
2024/04/09 12:43:12;;;;;;;;;;;14.60;99.90;;;;;;5530311;25;19927;-62
2024/04/09 12:45:39;;;;;;;;;;;14.70;99.90;;;;;;5537882;25;19927;-62
2024/04/09 12:48:06;;;;;;;;;;;14.70;99.90;;;;;;5532934;25;20025;-62
2024/04/09 12:50:33;;;;;;;;;;;14.70;99.90;;;;;;5540291;25;19933;-62
2024/04/09 12:53:00;;;;;;;;;;;14.60;99.90;;;;;;5543670;25;19926;-62
2024/04/09 12:55:27;;;;;;;;;;;14.70;99.90;;;;;;5539687;25;19999;-62
2024/04/09 12:57:54;;;;;;;;;;;14.70;99.90;;;;;;5535939;25;19933;-62
2024/04/09 13:00:21;;;;;;;;;;;14.50;99.90;;;;;;5542982;25;20341;-62
2024/04/09 13:02:49;;;;;;;;;;;14.40;99.90;;;;;;5535017;25;20576;-62
2024/04/09 13:05:17;;;;;;;;;;;14.40;99.90;;;;;;5540308;25;19927;-62
2024/04/09 13:07:44;;;;;;;;;;;14.30;99.90;;;;;;5535350;25;20297;-63
2024/04/09 13:10:10;;;;;;;;;;;14.30;99.90;;;;;;5539714;25;19935;-63
2024/04/09 13:12:37;;;;;;;;;;;14.40;99.90;;;;;;5541206;25;19927;-63
2024/04/09 13:15:05;;;;;;;;;;;14.40;99.90;;;;;;5535447;25;19927;-62
2024/04/09 13:17:32;;;;;;;;;;;14.20;99.90;;;;;;5525572;25;20656;-62
2024/04/09 13:19:59;;;;;;;;;;;14.30;99.90;;;;;;5539357;25;19933;-63
2024/04/09 13:22:26;;;;;;;;;;;14.20;99.90;;;;;;5538865;25;19927;-62
2024/04/09 13:24:55;;;;;;;;;;;14.10;99.90;;;;;;5532296;25;20262;-62
2024/04/09 13:27:22;;;;;;;;;;;14.10;99.90;;;;;;5532386;25;19927;-63
2024/04/09 13:29:49;;;;;;;;;;;14.20;99.90;;;;;;5540949;25;19926;-63
2024/04/09 13:32:18;;;;;;;;;;;14.30;99.90;;;;;;5528250;25;20276;-63
2024/04/09 13:34:45;;;;;;;;;;;14.40;99.90;;;;;;5530926;25;20506;-63
2024/04/09 13:37:12;;;;;;;;;;;14.30;99.90;;;;;;5525741;25;19935;-63
2024/04/09 13:39:39;;;;;;;;;;;14.40;99.90;;;;;;5523058;25;19927;-63
2024/04/09 13:42:06;;;;;;;;;;;14.40;99.90;;;;;;5523643;25;19933;-63
2024/04/09 13:44:33;;;;;;;;;;;14.30;99.60;;;;;;5526457;25;19933;-62
2024/04/09 13:47:00;;;;;;;;;;;14.20;99.90;;;;;;5536635;25;19927;-63
2024/04/09 13:49:27;;;;;;;;;;;14.10;99.90;;;;;;5526130;25;19934;-63
2024/04/09 13:51:54;;;;;;;;;;;14.10;99.90;;;;;;5525003;25;19927;-63
2024/04/09 13:54:20;;;;;;;;;;;14.00;99.90;;;;;;5534482;25;19933;-62
2024/04/09 13:56:47;;;;;;;;;;;13.90;99.90;;;;;;5528859;25;19932;-62
2024/04/09 13:59:14;;;;;;;;;;;13.80;99.90;;;;;;5529998;25;19933;-62
2024/04/09 14:01:41;;;;;;;;;;;13.80;99.90;;;;;;5540606;25;19927;-62
2024/04/09 14:04:10;;;;;;;;;;;13.80;99.90;;;;;;5536983;25;20358;-62
2024/04/09 14:06:37;;;;;;;;;;;13.80;99.90;;;;;;5511362;25;19927;-63
2024/04/09 14:09:04;;;;;;;;;;;13.70;99.90;;;;;;5512850;25;20475;-63
2024/04/09 14:11:30;;;;;;;;;;;13.60;99.90;;;;;;5515240;25;20389;-62
2024/04/09 14:13:59;;;;;;;;;;;13.60;99.90;;;;;;5513872;25;19955;-63
2024/04/09 14:16:26;;;;;;;;;;;13.60;99.90;;;;;;5516257;25;20289;-62
2024/04/09 14:18:53;;;;;;;;;;;13.60;99.90;;;;;;5532080;25;20286;-63